sensor_id;sensor_type;location;lat;lon;timestamp;P1;durP1;ratioP1;P2;durP2;ratioP2
62401;SDS011;48440;51.224;22.506;2023-12-20T00:02:24;19.88;;;11.38;;
62401;SDS011;48440;51.224;22.506;2023-12-20T00:04:50;19.85;;;10.68;;
62401;SDS011;48440;51.224;22.506;2023-12-20T00:07:15;17.17;;;9.70;;
62401;SDS011;48440;51.224;22.506;2023-12-20T00:09:41;22.08;;;11.35;;
62401;SDS011;48440;51.224;22.506;2023-12-20T00:12:06;17.92;;;10.25;;
62401;SDS011;48440;51.224;22.506;2023-12-20T00:14:32;20.02;;;11.10;;
62401;SDS011;48440;51.224;22.506;2023-12-20T00:16:57;20.92;;;10.48;;
62401;SDS011;48440;51.224;22.506;2023-12-20T00:19:22;29.27;;;11.45;;
62401;SDS011;48440;51.224;22.506;2023-12-20T00:21:49;26.92;;;11.27;;
62401;SDS011;48440;51.224;22.506;2023-12-20T00:24:14;25.50;;;11.52;;
62401;SDS011;48440;51.224;22.506;2023-12-20T00:26:40;26.33;;;11.45;;
62401;SDS011;48440;51.224;22.506;2023-12-20T00:29:05;18.17;;;10.68;;
62401;SDS011;48440;51.224;22.506;2023-12-20T00:31:30;16.77;;;9.65;;
62401;SDS011;48440;51.224;22.506;2023-12-20T00:33:56;18.75;;;10.32;;
62401;SDS011;48440;51.224;22.506;2023-12-20T00:36:21;20.33;;;11.07;;
62401;SDS011;48440;51.224;22.506;2023-12-20T00:38:47;18.58;;;10.23;;
62401;SDS011;48440;51.224;22.506;2023-12-20T00:41:13;18.30;;;10.20;;
62401;SDS011;48440;51.224;22.506;2023-12-20T00:43:38;16.23;;;9.95;;
62401;SDS011;48440;51.224;22.506;2023-12-20T00:46:04;17.88;;;9.65;;
62401;SDS011;48440;51.224;22.506;2023-12-20T00:48:29;15.30;;;9.13;;
62401;SDS011;48440;51.224;22.506;2023-12-20T00:50:56;18.00;;;9.52;;
62401;SDS011;48440;51.224;22.506;2023-12-20T00:53:22;15.13;;;9.20;;
62401;SDS011;48440;51.224;22.506;2023-12-20T00:55:48;18.90;;;10.60;;
62401;SDS011;48440;51.224;22.506;2023-12-20T00:58:13;27.45;;;11.50;;
62401;SDS011;48440;51.224;22.506;2023-12-20T01:00:40;28.83;;;10.93;;
62401;SDS011;48440;51.224;22.506;2023-12-20T01:03:07;28.20;;;10.90;;
62401;SDS011;48440;51.224;22.506;2023-12-20T01:05:32;19.40;;;9.93;;
62401;SDS011;48440;51.224;22.506;2023-12-20T01:07:58;17.45;;;9.73;;
62401;SDS011;48440;51.224;22.506;2023-12-20T01:10:23;16.02;;;10.05;;
62401;SDS011;48440;51.224;22.506;2023-12-20T01:12:48;16.20;;;9.70;;
62401;SDS011;48440;51.224;22.506;2023-12-20T01:15:14;18.92;;;9.43;;
62401;SDS011;48440;51.224;22.506;2023-12-20T01:17:39;20.98;;;10.75;;
62401;SDS011;48440;51.224;22.506;2023-12-20T01:20:05;17.33;;;9.65;;
62401;SDS011;48440;51.224;22.506;2023-12-20T01:22:31;20.73;;;10.40;;
62401;SDS011;48440;51.224;22.506;2023-12-20T01:24:56;22.08;;;10.65;;
62401;SDS011;48440;51.224;22.506;2023-12-20T01:27:22;18.42;;;9.93;;
62401;SDS011;48440;51.224;22.506;2023-12-20T01:29:47;32.30;;;11.27;;
62401;SDS011;48440;51.224;22.506;2023-12-20T01:32:13;21.95;;;10.80;;
62401;SDS011;48440;51.224;22.506;2023-12-20T01:34:38;20.90;;;10.70;;
62401;SDS011;48440;51.224;22.506;2023-12-20T01:37:04;17.08;;;9.38;;
62401;SDS011;48440;51.224;22.506;2023-12-20T01:39:29;21.15;;;10.30;;
62401;SDS011;48440;51.224;22.506;2023-12-20T01:41:55;21.05;;;10.52;;
62401;SDS011;48440;51.224;22.506;2023-12-20T01:44:20;31.20;;;10.80;;
62401;SDS011;48440;51.224;22.506;2023-12-20T01:46:46;17.30;;;9.43;;
62401;SDS011;48440;51.224;22.506;2023-12-20T01:49:12;17.85;;;9.63;;
62401;SDS011;48440;51.224;22.506;2023-12-20T01:51:38;20.13;;;9.77;;
62401;SDS011;48440;51.224;22.506;2023-12-20T01:54:04;29.05;;;10.80;;
62401;SDS011;48440;51.224;22.506;2023-12-20T01:56:30;38.80;;;11.77;;
62401;SDS011;48440;51.224;22.506;2023-12-20T01:58:56;33.97;;;11.77;;
62401;SDS011;48440;51.224;22.506;2023-12-20T02:01:22;22.27;;;10.57;;
62401;SDS011;48440;51.224;22.506;2023-12-20T02:03:48;28.25;;;10.40;;
62401;SDS011;48440;51.224;22.506;2023-12-20T02:06:14;25.63;;;11.13;;
62401;SDS011;48440;51.224;22.506;2023-12-20T02:08:41;21.83;;;10.68;;
62401;SDS011;48440;51.224;22.506;2023-12-20T02:11:06;20.70;;;10.25;;
62401;SDS011;48440;51.224;22.506;2023-12-20T02:13:33;19.02;;;9.98;;
62401;SDS011;48440;51.224;22.506;2023-12-20T02:15:58;20.98;;;10.27;;
62401;SDS011;48440;51.224;22.506;2023-12-20T02:18:24;19.85;;;10.32;;
62401;SDS011;48440;51.224;22.506;2023-12-20T02:20:49;17.48;;;10.32;;
62401;SDS011;48440;51.224;22.506;2023-12-20T02:23:15;15.68;;;10.13;;
62401;SDS011;48440;51.224;22.506;2023-12-20T02:25:40;17.67;;;9.63;;
62401;SDS011;48440;51.224;22.506;2023-12-20T02:28:06;19.60;;;11.80;;
62401;SDS011;48440;51.224;22.506;2023-12-20T02:30:32;19.08;;;10.00;;
62401;SDS011;48440;51.224;22.506;2023-12-20T02:32:57;18.10;;;9.68;;
62401;SDS011;48440;51.224;22.506;2023-12-20T02:35:25;18.38;;;10.48;;
62401;SDS011;48440;51.224;22.506;2023-12-20T02:37:51;19.45;;;10.60;;
62401;SDS011;48440;51.224;22.506;2023-12-20T02:40:16;19.02;;;9.85;;
62401;SDS011;48440;51.224;22.506;2023-12-20T02:42:42;31.80;;;11.50;;
62401;SDS011;48440;51.224;22.506;2023-12-20T02:45:07;18.65;;;10.25;;
62401;SDS011;48440;51.224;22.506;2023-12-20T02:47:33;17.92;;;10.05;;
62401;SDS011;48440;51.224;22.506;2023-12-20T02:49:58;17.25;;;10.13;;
62401;SDS011;48440;51.224;22.506;2023-12-20T02:52:24;17.00;;;9.93;;
62401;SDS011;48440;51.224;22.506;2023-12-20T02:54:50;16.88;;;9.93;;
62401;SDS011;48440;51.224;22.506;2023-12-20T02:57:15;23.15;;;10.82;;
62401;SDS011;48440;51.224;22.506;2023-12-20T02:59:40;25.90;;;10.48;;
62401;SDS011;48440;51.224;22.506;2023-12-20T03:02:06;23.80;;;11.20;;
62401;SDS011;48440;51.224;22.506;2023-12-20T03:04:31;21.05;;;9.77;;
62401;SDS011;48440;51.224;22.506;2023-12-20T03:06:57;23.58;;;10.80;;
62401;SDS011;48440;51.224;22.506;2023-12-20T03:09:22;23.98;;;10.80;;
62401;SDS011;48440;51.224;22.506;2023-12-20T03:11:47;30.13;;;11.60;;
62401;SDS011;48440;51.224;22.506;2023-12-20T03:14:13;19.02;;;9.80;;
62401;SDS011;48440;51.224;22.506;2023-12-20T03:16:39;16.13;;;9.68;;
62401;SDS011;48440;51.224;22.506;2023-12-20T03:19:04;16.35;;;9.80;;
62401;SDS011;48440;51.224;22.506;2023-12-20T03:21:30;15.02;;;9.85;;
62401;SDS011;48440;51.224;22.506;2023-12-20T03:23:55;17.63;;;9.82;;
62401;SDS011;48440;51.224;22.506;2023-12-20T03:26:20;16.10;;;9.15;;
62401;SDS011;48440;51.224;22.506;2023-12-20T03:28:47;16.52;;;9.55;;
62401;SDS011;48440;51.224;22.506;2023-12-20T03:31:13;16.80;;;9.65;;
62401;SDS011;48440;51.224;22.506;2023-12-20T03:33:39;14.82;;;9.02;;
62401;SDS011;48440;51.224;22.506;2023-12-20T03:36:05;12.90;;;9.00;;
62401;SDS011;48440;51.224;22.506;2023-12-20T03:38:30;13.55;;;9.43;;
62401;SDS011;48440;51.224;22.506;2023-12-20T03:40:56;15.77;;;9.32;;
62401;SDS011;48440;51.224;22.506;2023-12-20T03:43:21;15.82;;;9.48;;
62401;SDS011;48440;51.224;22.506;2023-12-20T03:45:47;15.82;;;8.85;;
62401;SDS011;48440;51.224;22.506;2023-12-20T03:48:12;15.45;;;9.43;;
62401;SDS011;48440;51.224;22.506;2023-12-20T03:50:37;14.75;;;8.98;;
62401;SDS011;48440;51.224;22.506;2023-12-20T03:53:03;14.10;;;7.93;;
62401;SDS011;48440;51.224;22.506;2023-12-20T03:55:29;14.75;;;8.70;;
62401;SDS011;48440;51.224;22.506;2023-12-20T03:57:54;13.82;;;9.52;;
62401;SDS011;48440;51.224;22.506;2023-12-20T04:00:19;15.48;;;8.70;;
62401;SDS011;48440;51.224;22.506;2023-12-20T04:02:45;13.95;;;8.55;;
62401;SDS011;48440;51.224;22.506;2023-12-20T04:05:10;15.43;;;8.45;;
62401;SDS011;48440;51.224;22.506;2023-12-20T04:07:39;14.25;;;8.40;;
62401;SDS011;48440;51.224;22.506;2023-12-20T04:10:04;17.02;;;9.20;;
62401;SDS011;48440;51.224;22.506;2023-12-20T04:12:30;13.70;;;8.35;;
62401;SDS011;48440;51.224;22.506;2023-12-20T04:14:57;15.07;;;8.38;;
62401;SDS011;48440;51.224;22.506;2023-12-20T04:17:22;15.88;;;8.95;;
62401;SDS011;48440;51.224;22.506;2023-12-20T04:19:51;15.77;;;9.60;;
62401;SDS011;48440;51.224;22.506;2023-12-20T04:22:17;15.50;;;9.07;;
62401;SDS011;48440;51.224;22.506;2023-12-20T04:24:43;16.25;;;9.52;;
62401;SDS011;48440;51.224;22.506;2023-12-20T04:27:09;13.80;;;9.00;;
62401;SDS011;48440;51.224;22.506;2023-12-20T04:29:35;17.67;;;9.63;;
62401;SDS011;48440;51.224;22.506;2023-12-20T04:32:04;16.15;;;9.48;;
62401;SDS011;48440;51.224;22.506;2023-12-20T04:34:32;16.70;;;9.05;;
62401;SDS011;48440;51.224;22.506;2023-12-20T04:36:58;14.07;;;9.25;;
62401;SDS011;48440;51.224;22.506;2023-12-20T04:39:23;17.17;;;9.75;;
62401;SDS011;48440;51.224;22.506;2023-12-20T04:41:52;15.65;;;8.88;;
62401;SDS011;48440;51.224;22.506;2023-12-20T04:44:17;15.18;;;9.07;;
62401;SDS011;48440;51.224;22.506;2023-12-20T04:46:42;16.63;;;10.55;;
62401;SDS011;48440;51.224;22.506;2023-12-20T04:49:08;14.90;;;9.15;;
62401;SDS011;48440;51.224;22.506;2023-12-20T04:51:36;16.92;;;10.07;;
62401;SDS011;48440;51.224;22.506;2023-12-20T04:54:03;15.23;;;8.93;;
62401;SDS011;48440;51.224;22.506;2023-12-20T04:56:28;16.40;;;9.18;;
62401;SDS011;48440;51.224;22.506;2023-12-20T04:58:57;13.57;;;9.07;;
62401;SDS011;48440;51.224;22.506;2023-12-20T05:01:22;14.55;;;9.43;;
62401;SDS011;48440;51.224;22.506;2023-12-20T05:03:47;14.25;;;9.10;;
62401;SDS011;48440;51.224;22.506;2023-12-20T05:06:15;18.83;;;9.20;;
62401;SDS011;48440;51.224;22.506;2023-12-20T05:08:40;13.18;;;8.13;;
62401;SDS011;48440;51.224;22.506;2023-12-20T05:11:06;15.32;;;8.52;;
62401;SDS011;48440;51.224;22.506;2023-12-20T05:13:31;13.80;;;8.57;;
62401;SDS011;48440;51.224;22.506;2023-12-20T05:15:57;15.65;;;8.55;;
62401;SDS011;48440;51.224;22.506;2023-12-20T05:18:22;14.70;;;9.25;;
62401;SDS011;48440;51.224;22.506;2023-12-20T05:20:48;17.63;;;9.85;;
62401;SDS011;48440;51.224;22.506;2023-12-20T05:23:15;15.75;;;8.75;;
62401;SDS011;48440;51.224;22.506;2023-12-20T05:25:41;15.77;;;8.82;;
62401;SDS011;48440;51.224;22.506;2023-12-20T05:28:06;14.38;;;8.63;;
62401;SDS011;48440;51.224;22.506;2023-12-20T05:30:32;12.95;;;8.43;;
62401;SDS011;48440;51.224;22.506;2023-12-20T05:32:57;14.68;;;9.40;;
62401;SDS011;48440;51.224;22.506;2023-12-20T05:35:22;14.98;;;9.02;;
62401;SDS011;48440;51.224;22.506;2023-12-20T05:37:48;15.55;;;8.50;;
62401;SDS011;48440;51.224;22.506;2023-12-20T05:40:15;14.60;;;9.60;;
62401;SDS011;48440;51.224;22.506;2023-12-20T05:42:40;13.40;;;8.20;;
62401;SDS011;48440;51.224;22.506;2023-12-20T05:45:06;14.18;;;8.52;;
62401;SDS011;48440;51.224;22.506;2023-12-20T05:47:31;14.48;;;9.65;;
62401;SDS011;48440;51.224;22.506;2023-12-20T05:49:57;13.05;;;8.07;;
62401;SDS011;48440;51.224;22.506;2023-12-20T05:52:23;14.27;;;9.05;;
62401;SDS011;48440;51.224;22.506;2023-12-20T05:54:48;15.50;;;8.80;;
62401;SDS011;48440;51.224;22.506;2023-12-20T05:57:14;14.57;;;8.77;;
62401;SDS011;48440;51.224;22.506;2023-12-20T05:59:39;12.98;;;8.52;;
62401;SDS011;48440;51.224;22.506;2023-12-20T06:02:05;13.35;;;8.30;;
62401;SDS011;48440;51.224;22.506;2023-12-20T06:04:31;14.27;;;8.63;;
62401;SDS011;48440;51.224;22.506;2023-12-20T06:06:56;12.27;;;9.00;;
62401;SDS011;48440;51.224;22.506;2023-12-20T06:09:22;13.60;;;8.88;;
62401;SDS011;48440;51.224;22.506;2023-12-20T06:11:48;13.35;;;8.98;;
62401;SDS011;48440;51.224;22.506;2023-12-20T06:14:13;13.38;;;8.38;;
62401;SDS011;48440;51.224;22.506;2023-12-20T06:16:38;12.90;;;9.00;;
62401;SDS011;48440;51.224;22.506;2023-12-20T06:19:04;13.43;;;8.65;;
62401;SDS011;48440;51.224;22.506;2023-12-20T06:21:31;14.23;;;9.43;;
62401;SDS011;48440;51.224;22.506;2023-12-20T06:23:56;16.45;;;8.88;;
62401;SDS011;48440;51.224;22.506;2023-12-20T06:26:23;13.15;;;8.63;;
62401;SDS011;48440;51.224;22.506;2023-12-20T06:28:49;15.18;;;9.75;;
62401;SDS011;48440;51.224;22.506;2023-12-20T06:31:14;13.98;;;9.07;;
62401;SDS011;48440;51.224;22.506;2023-12-20T06:33:40;15.32;;;9.68;;
62401;SDS011;48440;51.224;22.506;2023-12-20T06:36:10;15.23;;;9.02;;
62401;SDS011;48440;51.224;22.506;2023-12-20T06:38:37;14.93;;;9.52;;
62401;SDS011;48440;51.224;22.506;2023-12-20T06:41:02;16.30;;;9.40;;
62401;SDS011;48440;51.224;22.506;2023-12-20T06:43:28;15.88;;;9.38;;
62401;SDS011;48440;51.224;22.506;2023-12-20T06:45:54;17.25;;;9.77;;
62401;SDS011;48440;51.224;22.506;2023-12-20T06:48:19;14.38;;;9.50;;
62401;SDS011;48440;51.224;22.506;2023-12-20T06:50:45;15.63;;;10.07;;
62401;SDS011;48440;51.224;22.506;2023-12-20T06:53:11;14.80;;;9.13;;
62401;SDS011;48440;51.224;22.506;2023-12-20T06:55:36;17.23;;;9.95;;
62401;SDS011;48440;51.224;22.506;2023-12-20T06:58:02;15.88;;;10.15;;
62401;SDS011;48440;51.224;22.506;2023-12-20T07:00:29;15.20;;;9.85;;
62401;SDS011;48440;51.224;22.506;2023-12-20T07:02:55;16.10;;;9.27;;
62401;SDS011;48440;51.224;22.506;2023-12-20T07:05:20;17.40;;;9.60;;
62401;SDS011;48440;51.224;22.506;2023-12-20T07:07:46;17.55;;;10.70;;
62401;SDS011;48440;51.224;22.506;2023-12-20T07:10:12;16.70;;;9.85;;
62401;SDS011;48440;51.224;22.506;2023-12-20T07:12:38;15.35;;;9.70;;
62401;SDS011;48440;51.224;22.506;2023-12-20T07:15:04;15.55;;;9.30;;
62401;SDS011;48440;51.224;22.506;2023-12-20T07:17:31;14.55;;;9.95;;
62401;SDS011;48440;51.224;22.506;2023-12-20T07:19:58;16.70;;;9.63;;
62401;SDS011;48440;51.224;22.506;2023-12-20T07:22:23;14.40;;;9.98;;
62401;SDS011;48440;51.224;22.506;2023-12-20T07:24:49;15.48;;;9.95;;
62401;SDS011;48440;51.224;22.506;2023-12-20T07:27:14;13.93;;;9.25;;
62401;SDS011;48440;51.224;22.506;2023-12-20T07:29:40;16.50;;;9.88;;
62401;SDS011;48440;51.224;22.506;2023-12-20T07:32:06;16.80;;;10.38;;
62401;SDS011;48440;51.224;22.506;2023-12-20T07:34:31;14.93;;;10.20;;
62401;SDS011;48440;51.224;22.506;2023-12-20T07:36:57;14.75;;;9.23;;
62401;SDS011;48440;51.224;22.506;2023-12-20T07:39:22;15.93;;;10.57;;
62401;SDS011;48440;51.224;22.506;2023-12-20T07:41:48;14.25;;;10.23;;
62401;SDS011;48440;51.224;22.506;2023-12-20T07:44:13;17.33;;;9.93;;
62401;SDS011;48440;51.224;22.506;2023-12-20T07:46:40;18.52;;;10.88;;
62401;SDS011;48440;51.224;22.506;2023-12-20T07:49:06;17.35;;;9.65;;
62401;SDS011;48440;51.224;22.506;2023-12-20T07:51:33;17.13;;;10.23;;
62401;SDS011;48440;51.224;22.506;2023-12-20T07:53:59;17.83;;;11.30;;
62401;SDS011;48440;51.224;22.506;2023-12-20T07:56:24;16.02;;;10.20;;
62401;SDS011;48440;51.224;22.506;2023-12-20T07:58:50;17.08;;;10.93;;
62401;SDS011;48440;51.224;22.506;2023-12-20T08:01:15;18.73;;;11.02;;
62401;SDS011;48440;51.224;22.506;2023-12-20T08:03:42;18.58;;;10.85;;
62401;SDS011;48440;51.224;22.506;2023-12-20T08:06:07;37.38;;;12.05;;
62401;SDS011;48440;51.224;22.506;2023-12-20T08:08:32;33.90;;;12.18;;
62401;SDS011;48440;51.224;22.506;2023-12-20T08:10:58;38.90;;;12.32;;
62401;SDS011;48440;51.224;22.506;2023-12-20T08:13:25;32.10;;;11.40;;
62401;SDS011;48440;51.224;22.506;2023-12-20T08:15:51;31.42;;;12.15;;
62401;SDS011;48440;51.224;22.506;2023-12-20T08:18:17;35.60;;;12.52;;
62401;SDS011;48440;51.224;22.506;2023-12-20T08:20:43;37.42;;;11.75;;
62401;SDS011;48440;51.224;22.506;2023-12-20T08:23:08;35.50;;;12.20;;
62401;SDS011;48440;51.224;22.506;2023-12-20T08:25:34;19.95;;;10.40;;
62401;SDS011;48440;51.224;22.506;2023-12-20T08:27:59;23.50;;;11.35;;
62401;SDS011;48440;51.224;22.506;2023-12-20T08:30:24;20.08;;;10.98;;
62401;SDS011;48440;51.224;22.506;2023-12-20T08:32:53;15.75;;;10.07;;
62401;SDS011;48440;51.224;22.506;2023-12-20T08:35:18;17.00;;;9.70;;
62401;SDS011;48440;51.224;22.506;2023-12-20T08:37:44;26.95;;;10.93;;
62401;SDS011;48440;51.224;22.506;2023-12-20T08:40:10;20.20;;;10.02;;
62401;SDS011;48440;51.224;22.506;2023-12-20T08:42:35;20.52;;;10.02;;
62401;SDS011;48440;51.224;22.506;2023-12-20T08:45:01;17.10;;;9.95;;
62401;SDS011;48440;51.224;22.506;2023-12-20T08:47:28;22.65;;;9.82;;
62401;SDS011;48440;51.224;22.506;2023-12-20T08:49:54;16.45;;;10.30;;
62401;SDS011;48440;51.224;22.506;2023-12-20T08:52:25;15.52;;;9.07;;
62401;SDS011;48440;51.224;22.506;2023-12-20T08:54:52;15.07;;;8.73;;
62401;SDS011;48440;51.224;22.506;2023-12-20T08:57:19;14.20;;;8.23;;
62401;SDS011;48440;51.224;22.506;2023-12-20T08:59:46;16.13;;;8.85;;
62401;SDS011;48440;51.224;22.506;2023-12-20T09:02:12;16.30;;;8.98;;
62401;SDS011;48440;51.224;22.506;2023-12-20T09:04:38;16.85;;;9.07;;
62401;SDS011;48440;51.224;22.506;2023-12-20T09:07:04;14.00;;;8.13;;
62401;SDS011;48440;51.224;22.506;2023-12-20T09:09:29;14.40;;;8.13;;
62401;SDS011;48440;51.224;22.506;2023-12-20T09:11:57;15.98;;;9.10;;
62401;SDS011;48440;51.224;22.506;2023-12-20T09:14:22;16.95;;;9.15;;
62401;SDS011;48440;51.224;22.506;2023-12-20T09:16:48;36.05;;;10.30;;
62401;SDS011;48440;51.224;22.506;2023-12-20T09:19:16;15.70;;;9.13;;
62401;SDS011;48440;51.224;22.506;2023-12-20T09:21:41;16.88;;;9.88;;
62401;SDS011;48440;51.224;22.506;2023-12-20T09:24:07;15.98;;;9.68;;
62401;SDS011;48440;51.224;22.506;2023-12-20T09:26:33;14.73;;;9.23;;
62401;SDS011;48440;51.224;22.506;2023-12-20T09:28:59;17.75;;;10.02;;
62401;SDS011;48440;51.224;22.506;2023-12-20T09:31:25;28.20;;;10.60;;
62401;SDS011;48440;51.224;22.506;2023-12-20T09:33:50;19.15;;;9.63;;
62401;SDS011;48440;51.224;22.506;2023-12-20T09:36:15;34.10;;;10.80;;
62401;SDS011;48440;51.224;22.506;2023-12-20T09:38:41;15.18;;;9.10;;
62401;SDS011;48440;51.224;22.506;2023-12-20T09:41:07;17.25;;;9.32;;
62401;SDS011;48440;51.224;22.506;2023-12-20T09:43:32;19.02;;;9.93;;
62401;SDS011;48440;51.224;22.506;2023-12-20T09:46:06;15.98;;;8.43;;
62401;SDS011;48440;51.224;22.506;2023-12-20T09:48:35;15.20;;;9.10;;
62401;SDS011;48440;51.224;22.506;2023-12-20T09:51:01;14.43;;;8.63;;
62401;SDS011;48440;51.224;22.506;2023-12-20T09:53:27;15.68;;;9.63;;
62401;SDS011;48440;51.224;22.506;2023-12-20T09:55:58;14.98;;;9.00;;
62401;SDS011;48440;51.224;22.506;2023-12-20T09:58:26;16.25;;;9.73;;
62401;SDS011;48440;51.224;22.506;2023-12-20T10:00:52;13.55;;;8.50;;
62401;SDS011;48440;51.224;22.506;2023-12-20T10:03:19;14.60;;;8.98;;
62401;SDS011;48440;51.224;22.506;2023-12-20T10:05:50;12.82;;;8.82;;
62401;SDS011;48440;51.224;22.506;2023-12-20T10:08:19;14.48;;;8.88;;
62401;SDS011;48440;51.224;22.506;2023-12-20T10:10:46;11.35;;;8.18;;
62401;SDS011;48440;51.224;22.506;2023-12-20T10:13:12;11.82;;;8.30;;
62401;SDS011;48440;51.224;22.506;2023-12-20T10:15:38;11.68;;;7.88;;
62401;SDS011;48440;51.224;22.506;2023-12-20T10:18:03;11.43;;;7.95;;
62401;SDS011;48440;51.224;22.506;2023-12-20T10:20:30;12.77;;;7.70;;
62401;SDS011;48440;51.224;22.506;2023-12-20T10:22:56;11.75;;;8.25;;
62401;SDS011;48440;51.224;22.506;2023-12-20T10:25:23;13.05;;;7.53;;
62401;SDS011;48440;51.224;22.506;2023-12-20T10:27:49;13.57;;;7.82;;
62401;SDS011;48440;51.224;22.506;2023-12-20T10:30:56;13.77;;;7.05;;
62401;SDS011;48440;51.224;22.506;2023-12-20T10:33:25;14.05;;;7.40;;
62401;SDS011;48440;51.224;22.506;2023-12-20T10:35:52;21.45;;;7.95;;
62401;SDS011;48440;51.224;22.506;2023-12-20T10:38:18;20.83;;;7.75;;
62401;SDS011;48440;51.224;22.506;2023-12-20T10:40:47;17.20;;;7.45;;
62401;SDS011;48440;51.224;22.506;2023-12-20T10:43:18;11.88;;;6.05;;
62401;SDS011;48440;51.224;22.506;2023-12-20T10:45:45;9.40;;;5.40;;
62401;SDS011;48440;51.224;22.506;2023-12-20T10:48:11;16.17;;;5.78;;
62401;SDS011;48440;51.224;22.506;2023-12-20T10:50:37;6.95;;;3.70;;
62401;SDS011;48440;51.224;22.506;2023-12-20T10:53:03;7.88;;;4.15;;
62401;SDS011;48440;51.224;22.506;2023-12-20T10:55:29;6.35;;;3.53;;
62401;SDS011;48440;51.224;22.506;2023-12-20T10:58:08;9.68;;;4.47;;
62401;SDS011;48440;51.224;22.506;2023-12-20T11:00:42;9.82;;;4.85;;
62401;SDS011;48440;51.224;22.506;2023-12-20T11:03:11;12.85;;;6.28;;
62401;SDS011;48440;51.224;22.506;2023-12-20T11:10:56;11.75;;;7.10;;
62401;SDS011;48440;51.224;22.506;2023-12-20T11:13:48;15.85;;;7.75;;
62401;SDS011;48440;51.224;22.506;2023-12-20T11:16:20;10.32;;;5.72;;
62401;SDS011;48440;51.224;22.506;2023-12-20T11:18:46;6.65;;;4.32;;
62401;SDS011;48440;51.224;22.506;2023-12-20T11:21:12;5.28;;;3.95;;
62401;SDS011;48440;51.224;22.506;2023-12-20T11:23:39;8.15;;;5.10;;
62401;SDS011;48440;51.224;22.506;2023-12-20T11:26:07;8.95;;;6.00;;
62401;SDS011;48440;51.224;22.506;2023-12-20T11:28:33;9.88;;;6.03;;
62401;SDS011;48440;51.224;22.506;2023-12-20T11:31:00;10.38;;;6.43;;
62401;SDS011;48440;51.224;22.506;2023-12-20T11:33:30;13.68;;;7.40;;
62401;SDS011;48440;51.224;22.506;2023-12-20T11:36:02;10.93;;;7.47;;
62401;SDS011;48440;51.224;22.506;2023-12-20T11:38:37;9.88;;;7.60;;
62401;SDS011;48440;51.224;22.506;2023-12-20T11:41:05;11.77;;;8.25;;
62401;SDS011;48440;51.224;22.506;2023-12-20T11:43:38;13.80;;;8.80;;
62401;SDS011;48440;51.224;22.506;2023-12-20T11:46:08;13.00;;;7.80;;
62401;SDS011;48440;51.224;22.506;2023-12-20T11:48:39;10.77;;;6.68;;
62401;SDS011;48440;51.224;22.506;2023-12-20T11:51:14;8.90;;;6.35;;
62401;SDS011;48440;51.224;22.506;2023-12-20T11:53:42;8.88;;;6.20;;
62401;SDS011;48440;51.224;22.506;2023-12-20T11:56:08;9.05;;;5.97;;
62401;SDS011;48440;51.224;22.506;2023-12-20T11:58:35;9.32;;;5.70;;
62401;SDS011;48440;51.224;22.506;2023-12-20T12:01:01;7.65;;;5.38;;
62401;SDS011;48440;51.224;22.506;2023-12-20T12:03:32;8.85;;;4.97;;
62401;SDS011;48440;51.224;22.506;2023-12-20T12:05:57;7.07;;;4.47;;
62401;SDS011;48440;51.224;22.506;2023-12-20T12:08:24;7.55;;;5.03;;
62401;SDS011;48440;51.224;22.506;2023-12-20T12:10:50;6.70;;;3.25;;
62401;SDS011;48440;51.224;22.506;2023-12-20T12:13:15;6.18;;;3.65;;
62401;SDS011;48440;51.224;22.506;2023-12-20T12:15:41;4.60;;;2.60;;
62401;SDS011;48440;51.224;22.506;2023-12-20T12:18:07;4.00;;;1.90;;
62401;SDS011;48440;51.224;22.506;2023-12-20T12:20:33;3.85;;;1.80;;
62401;SDS011;48440;51.224;22.506;2023-12-20T12:23:02;3.10;;;1.60;;
62401;SDS011;48440;51.224;22.506;2023-12-20T12:25:29;3.60;;;2.08;;
62401;SDS011;48440;51.224;22.506;2023-12-20T12:27:59;3.42;;;1.60;;
62401;SDS011;48440;51.224;22.506;2023-12-20T12:30:25;2.55;;;1.40;;
62401;SDS011;48440;51.224;22.506;2023-12-20T12:32:51;5.18;;;2.67;;
62401;SDS011;48440;51.224;22.506;2023-12-20T12:35:17;5.90;;;1.88;;
62401;SDS011;48440;51.224;22.506;2023-12-20T12:37:44;4.72;;;2.05;;
62401;SDS011;48440;51.224;22.506;2023-12-20T12:40:10;3.13;;;1.60;;
62401;SDS011;48440;51.224;22.506;2023-12-20T12:42:40;2.88;;;1.50;;
62401;SDS011;48440;51.224;22.506;2023-12-20T12:45:07;2.20;;;1.42;;
62401;SDS011;48440;51.224;22.506;2023-12-20T12:47:34;3.25;;;1.60;;
62401;SDS011;48440;51.224;22.506;2023-12-20T12:50:00;5.28;;;2.65;;
62401;SDS011;48440;51.224;22.506;2023-12-20T12:52:26;3.35;;;1.88;;
62401;SDS011;48440;51.224;22.506;2023-12-20T12:54:52;4.63;;;2.08;;
62401;SDS011;48440;51.224;22.506;2023-12-20T12:57:18;3.55;;;2.20;;
62401;SDS011;48440;51.224;22.506;2023-12-20T12:59:44;4.20;;;2.60;;
62401;SDS011;48440;51.224;22.506;2023-12-20T13:02:11;3.92;;;1.60;;
62401;SDS011;48440;51.224;22.506;2023-12-20T13:04:38;6.40;;;2.63;;
62401;SDS011;48440;51.224;22.506;2023-12-20T13:07:04;4.47;;;2.33;;
62401;SDS011;48440;51.224;22.506;2023-12-20T13:09:30;2.20;;;1.40;;
62401;SDS011;48440;51.224;22.506;2023-12-20T13:11:56;4.10;;;2.10;;
62401;SDS011;48440;51.224;22.506;2023-12-20T13:14:22;4.80;;;1.77;;
62401;SDS011;48440;51.224;22.506;2023-12-20T13:16:47;4.13;;;1.98;;
62401;SDS011;48440;51.224;22.506;2023-12-20T13:19:13;4.20;;;1.90;;
62401;SDS011;48440;51.224;22.506;2023-12-20T13:21:38;2.28;;;1.30;;
62401;SDS011;48440;51.224;22.506;2023-12-20T13:24:04;2.35;;;1.02;;
62401;SDS011;48440;51.224;22.506;2023-12-20T13:26:30;2.13;;;1.20;;
62401;SDS011;48440;51.224;22.506;2023-12-20T13:28:55;2.35;;;1.25;;
62401;SDS011;48440;51.224;22.506;2023-12-20T13:31:21;3.08;;;1.50;;
62401;SDS011;48440;51.224;22.506;2023-12-20T13:33:46;2.42;;;1.30;;
62401;SDS011;48440;51.224;22.506;2023-12-20T13:36:12;2.45;;;1.60;;
62401;SDS011;48440;51.224;22.506;2023-12-20T13:38:38;2.67;;;1.70;;
62401;SDS011;48440;51.224;22.506;2023-12-20T13:41:03;2.80;;;1.63;;
62401;SDS011;48440;51.224;22.506;2023-12-20T13:43:30;6.47;;;2.25;;
62401;SDS011;48440;51.224;22.506;2023-12-20T13:45:57;8.23;;;2.35;;
62401;SDS011;48440;51.224;22.506;2023-12-20T13:48:25;6.88;;;2.67;;
62401;SDS011;48440;51.224;22.506;2023-12-20T13:50:51;9.43;;;2.90;;
62401;SDS011;48440;51.224;22.506;2023-12-20T13:53:16;8.68;;;3.53;;
62401;SDS011;48440;51.224;22.506;2023-12-20T13:55:42;8.27;;;2.92;;
62401;SDS011;48440;51.224;22.506;2023-12-20T13:58:07;8.02;;;2.83;;
62401;SDS011;48440;51.224;22.506;2023-12-20T14:00:35;6.72;;;2.40;;
62401;SDS011;48440;51.224;22.506;2023-12-20T14:03:01;8.13;;;2.92;;
62401;SDS011;48440;51.224;22.506;2023-12-20T14:05:27;6.55;;;2.75;;
62401;SDS011;48440;51.224;22.506;2023-12-20T14:07:53;8.13;;;2.97;;
62401;SDS011;48440;51.224;22.506;2023-12-20T14:10:18;7.53;;;2.67;;
62401;SDS011;48440;51.224;22.506;2023-12-20T14:12:44;8.05;;;2.90;;
62401;SDS011;48440;51.224;22.506;2023-12-20T14:15:10;5.30;;;2.17;;
62401;SDS011;48440;51.224;22.506;2023-12-20T14:17:38;3.95;;;2.00;;
62401;SDS011;48440;51.224;22.506;2023-12-20T14:20:08;7.13;;;2.35;;
62401;SDS011;48440;51.224;22.506;2023-12-20T14:22:34;5.15;;;2.50;;